Time;durP1;ratioP1;P1;durP2;ratioP2;P2;SDS_P1;SDS_P2;PMS_P1;PMS_P2;Temp;Humidity;BMP_temperature;BMP_pressure;BME280_temperature;BME280_humidity;BME280_pressure;Samples;Min_cycle;Max_cycle;Signal;HPM_P1;HPM_P2
2021/11/27 00:00:09;;;;;;;5.47;1.60;;;;;;;;;;5012903;28;20052;-73
2021/11/27 00:02:39;;;;;;;5.15;1.45;;;;;;;;;;4995547;28;20111;-78
2021/11/27 00:05:07;;;;;;;8.32;1.17;;;;;;;;;;5012908;28;20046;-73
2021/11/27 00:07:36;;;;;;;4.07;1.50;;;;;;;;;;5012940;28;20173;-72
2021/11/27 00:10:05;;;;;;;6.55;1.85;;;;;;;;;;5012506;28;20046;-73
2021/11/27 00:12:33;;;;;;;7.47;1.65;;;;;;;;;;5012854;28;20038;-72
2021/11/27 00:15:00;;;;;;;8.57;1.95;;;;;;;;;;4996939;28;20042;-78
2021/11/27 00:17:28;;;;;;;5.40;1.35;;;;;;;;;;4998921;28;20476;-74
2021/11/27 00:19:55;;;;;;;4.78;1.90;;;;;;;;;;5016588;28;20046;-75
2021/11/27 00:22:23;;;;;;;3.60;1.63;;;;;;;;;;5016646;28;20125;-72
2021/11/27 00:24:52;;;;;;;3.05;1.65;;;;;;;;;;5016552;28;20041;-74
2021/11/27 00:27:21;;;;;;;7.50;1.80;;;;;;;;;;5016545;28;20050;-78
2021/11/27 00:29:49;;;;;;;4.63;1.67;;;;;;;;;;5014781;28;20070;-78
2021/11/27 00:32:18;;;;;;;5.43;1.60;;;;;;;;;;5014928;28;20419;-74
2021/11/27 00:34:49;;;;;;;4.10;1.58;;;;;;;;;;4998850;28;20527;-78
2021/11/27 00:37:17;;;;;;;4.38;1.65;;;;;;;;;;5016172;28;20134;-74
2021/11/27 00:39:44;;;;;;;2.65;1.40;;;;;;;;;;4998952;28;20056;-79
2021/11/27 00:42:15;;;;;;;4.97;1.65;;;;;;;;;;5014918;28;20096;-78
2021/11/27 00:44:43;;;;;;;4.63;1.25;;;;;;;;;;5014888;28;20046;-74
2021/11/27 00:47:11;;;;;;;6.53;1.80;;;;;;;;;;4998309;28;20077;-74
2021/11/27 00:49:40;;;;;;;2.88;1.15;;;;;;;;;;5014730;28;20089;-72
2021/11/27 00:52:10;;;;;;;4.45;1.73;;;;;;;;;;5016150;28;20041;-74
2021/11/27 00:54:37;;;;;;;5.57;1.55;;;;;;;;;;4998555;28;20515;-78
2021/11/27 00:57:06;;;;;;;5.55;1.10;;;;;;;;;;4998477;28;20069;-78
2021/11/27 00:59:37;;;;;;;4.10;1.45;;;;;;;;;;5015548;28;20122;-74
2021/11/27 01:02:05;;;;;;;3.65;1.33;;;;;;;;;;5014850;28;20056;-72
2021/11/27 01:04:34;;;;;;;2.63;1.42;;;;;;;;;;4998757;28;20046;-72
2021/11/27 01:07:05;;;;;;;6.07;1.58;;;;;;;;;;4998033;28;20453;-74
2021/11/27 01:09:33;;;;;;;6.03;1.35;;;;;;;;;;4998231;28;20050;-74
2021/11/27 01:12:02;;;;;;;3.45;1.30;;;;;;;;;;4998000;28;20077;-74
2021/11/27 01:14:30;;;;;;;2.88;1.23;;;;;;;;;;5015369;28;20046;-74
2021/11/27 01:16:59;;;;;;;6.25;1.50;;;;;;;;;;5015453;28;20476;-72
2021/11/27 01:19:27;;;;;;;1.48;1.00;;;;;;;;;;5016041;28;20069;-72
2021/11/27 01:21:57;;;;;;;7.85;1.13;;;;;;;;;;5015990;28;20049;-72
2021/11/27 01:24:27;;;;;;;3.55;1.15;;;;;;;;;;4998140;28;20071;-75
2021/11/27 01:26:55;;;;;;;4.93;1.15;;;;;;;;;;5014721;28;20045;-74
2021/11/27 01:29:35;;;;;;;1.75;1.20;;;;;;;;;;5015310;28;20089;-72
2021/11/27 01:32:03;;;;;;;3.80;1.02;;;;;;;;;;5014410;28;20132;-72
2021/11/27 01:34:31;;;;;;;9.95;1.52;;;;;;;;;;4981745;28;20053;-75
2021/11/27 01:36:59;;;;;;;8.27;1.25;;;;;;;;;;4998161;28;20069;-72
2021/11/27 01:39:27;;;;;;;2.28;0.98;;;;;;;;;;5015560;28;20042;-79
2021/11/27 01:41:55;;;;;;;5.22;1.50;;;;;;;;;;4997505;28;20049;-73
2021/11/27 01:44:23;;;;;;;2.28;0.90;;;;;;;;;;4981546;28;20411;-72
2021/11/27 01:46:52;;;;;;;2.70;1.08;;;;;;;;;;4997467;28;20132;-74
2021/11/27 01:49:20;;;;;;;3.58;1.13;;;;;;;;;;4997865;28;20488;-72
2021/11/27 01:51:48;;;;;;;2.70;1.13;;;;;;;;;;4998728;28;20042;-74
2021/11/27 01:54:16;;;;;;;2.78;1.08;;;;;;;;;;4981406;28;20046;-74
2021/11/27 01:56:50;;;;;;;3.97;1.25;;;;;;;;;;4997070;28;20076;-73
2021/11/27 01:59:24;;;;;;;3.85;1.17;;;;;;;;;;4982263;28;20042;-72
2021/11/27 02:01:51;;;;;;;4.03;0.93;;;;;;;;;;4997523;28;20104;-74
2021/11/27 02:04:23;;;;;;;7.30;1.13;;;;;;;;;;4981972;28;20042;-74
2021/11/27 02:06:51;;;;;;;3.15;1.20;;;;;;;;;;4996826;28;20120;-72
2021/11/27 02:09:21;;;;;;;3.13;1.20;;;;;;;;;;5014728;28;20081;-72
2021/11/27 02:11:50;;;;;;;5.00;1.20;;;;;;;;;;4996509;28;20050;-72
2021/11/27 02:14:19;;;;;;;5.97;1.00;;;;;;;;;;4997402;28;20407;-74
2021/11/27 02:17:01;;;;;;;6.57;1.02;;;;;;;;;;4997304;28;20052;-77
2021/11/27 02:19:31;;;;;;;3.45;1.02;;;;;;;;;;4996938;28;20046;-74
2021/11/27 02:21:59;;;;;;;3.97;1.30;;;;;;;;;;4997383;28;20042;-77
2021/11/27 02:24:35;;;;;;;2.45;0.82;;;;;;;;;;4982145;28;20052;-72
2021/11/27 02:27:02;;;;;;;2.50;1.20;;;;;;;;;;5013558;28;20053;-74
2021/11/27 02:29:32;;;;;;;5.78;1.17;;;;;;;;;;4996723;28;20034;-72
2021/11/27 02:32:01;;;;;;;6.25;1.10;;;;;;;;;;4980953;28;20046;-72
2021/11/27 02:34:30;;;;;;;3.47;0.88;;;;;;;;;;5013195;28;20064;-73
2021/11/27 02:37:03;;;;;;;1.65;0.93;;;;;;;;;;4980873;28;20050;-72
2021/11/27 02:39:35;;;;;;;3.03;1.20;;;;;;;;;;4995917;28;20060;-74
2021/11/27 02:42:04;;;;;;;5.03;1.17;;;;;;;;;;5012698;28;20046;-78
2021/11/27 02:44:32;;;;;;;4.43;1.10;;;;;;;;;;5014249;28;20034;-78
2021/11/27 02:47:00;;;;;;;6.30;1.40;;;;;;;;;;4996267;28;20145;-74
2021/11/27 02:49:28;;;;;;;3.42;0.90;;;;;;;;;;4996666;28;20511;-74
2021/11/27 02:51:56;;;;;;;2.55;1.00;;;;;;;;;;5014549;28;20042;-72
2021/11/27 02:54:26;;;;;;;1.55;1.10;;;;;;;;;;4995530;28;20489;-74
2021/11/27 02:56:55;;;;;;;3.10;1.17;;;;;;;;;;4996275;28;20062;-73
2021/11/27 02:59:27;;;;;;;6.43;1.10;;;;;;;;;;4996691;28;20430;-74
2021/11/27 03:01:56;;;;;;;2.63;0.95;;;;;;;;;;4996424;28;20042;-73
2021/11/27 03:04:28;;;;;;;8.00;1.45;;;;;;;;;;4980299;28;20042;-77
2021/11/27 03:06:56;;;;;;;3.90;1.13;;;;;;;;;;5013706;28;20042;-77
2021/11/27 03:09:27;;;;;;;3.92;0.98;;;;;;;;;;4995868;28;20074;-72
2021/11/27 03:11:56;;;;;;;2.92;1.15;;;;;;;;;;4977151;28;20141;-74
2021/11/27 03:14:24;;;;;;;3.50;0.80;;;;;;;;;;4974450;28;20197;-72
2021/11/27 03:16:53;;;;;;;3.28;0.90;;;;;;;;;;4973286;28;20053;-74
2021/11/27 03:19:31;;;;;;;3.70;1.10;;;;;;;;;;4958112;28;20367;-74
2021/11/27 03:22:00;;;;;;;4.00;1.35;;;;;;;;;;4989407;28;20138;-78
2021/11/27 03:24:34;;;;;;;4.88;1.38;;;;;;;;;;4988988;28;20498;-72
2021/11/27 03:27:02;;;;;;;8.60;1.45;;;;;;;;;;4972656;28;20098;-74
2021/11/27 03:29:30;;;;;;;3.67;1.30;;;;;;;;;;4973139;28;20105;-74
2021/11/27 03:32:03;;;;;;;2.63;1.00;;;;;;;;;;4973167;28;20047;-75
2021/11/27 03:34:52;;;;;;;5.47;1.20;;;;;;;;;;4974114;28;20051;-72
2021/11/27 03:37:24;;;;;;;4.22;1.23;;;;;;;;;;4989195;28;20043;-74
2021/11/27 03:39:52;;;;;;;5.53;1.55;;;;;;;;;;4989098;28;20051;-73
2021/11/27 03:42:21;;;;;;;6.47;1.23;;;;;;;;;;4957699;28;20375;-78
2021/11/27 03:44:49;;;;;;;3.60;1.42;;;;;;;;;;4988982;28;20042;-74
2021/11/27 03:47:17;;;;;;;5.18;1.52;;;;;;;;;;4956849;28;20047;-74
2021/11/27 03:49:45;;;;;;;3.17;1.40;;;;;;;;;;4988540;28;20047;-72
2021/11/27 03:52:14;;;;;;;8.70;1.90;;;;;;;;;;4988632;28;20210;-74
2021/11/27 03:54:44;;;;;;;9.95;2.25;;;;;;;;;;4972794;28;20498;-72
2021/11/27 03:57:13;;;;;;;7.25;2.78;;;;;;;;;;4956732;28;20038;-74
2021/11/27 03:59:40;;;;;;;3.00;1.90;;;;;;;;;;4972592;28;20110;-72
2021/11/27 04:02:08;;;;;;;2.22;1.15;;;;;;;;;;4972864;28;20054;-72
2021/11/27 04:04:42;;;;;;;6.85;1.92;;;;;;;;;;4973691;28;20077;-72
2021/11/27 04:07:11;;;;;;;7.22;2.50;;;;;;;;;;4988530;28;20047;-73
2021/11/27 04:09:42;;;;;;;5.53;3.17;;;;;;;;;;4988882;28;20505;-72
2021/11/27 04:12:09;;;;;;;4.78;2.67;;;;;;;;;;4988566;28;20047;-72
2021/11/27 04:14:44;;;;;;;3.28;1.38;;;;;;;;;;4972639;28;20418;-73
2021/11/27 04:17:11;;;;;;;2.50;1.50;;;;;;;;;;4973998;28;20035;-77
2021/11/27 04:19:42;;;;;;;5.75;1.52;;;;;;;;;;4957163;28;20059;-73
2021/11/27 04:22:10;;;;;;;10.82;1.75;;;;;;;;;;4956565;28;20495;-72
2021/11/27 04:24:47;;;;;;;4.35;2.10;;;;;;;;;;4972213;28;20086;-72
2021/11/27 04:27:14;;;;;;;3.28;2.15;;;;;;;;;;4972519;28;20145;-78
2021/11/27 04:29:42;;;;;;;5.05;2.10;;;;;;;;;;4988805;28;20078;-74
2021/11/27 04:32:12;;;;;;;5.65;2.60;;;;;;;;;;4988449;28;20051;-74
2021/11/27 04:34:45;;;;;;;8.45;2.58;;;;;;;;;;4972679;28;20053;-74
2021/11/27 04:37:15;;;;;;;12.40;2.60;;;;;;;;;;4972000;28;20121;-78
2021/11/27 04:39:43;;;;;;;8.73;3.10;;;;;;;;;;4973355;28;20102;-74
2021/11/27 04:42:11;;;;;;;4.50;2.30;;;;;;;;;;4972642;28;20043;-78
2021/11/27 04:44:40;;;;;;;7.53;3.10;;;;;;;;;;4988804;28;20039;-78
2021/11/27 04:47:07;;;;;;;5.00;2.85;;;;;;;;;;4972058;28;20059;-73
2021/11/27 04:49:35;;;;;;;17.48;8.45;;;;;;;;;;4956370;28;20562;-78
2021/11/27 04:52:03;;;;;;;7.53;2.47;;;;;;;;;;4955820;28;20053;-72
2021/11/27 04:54:32;;;;;;;2.78;2.42;;;;;;;;;;4971938;28;20186;-78
2021/11/27 04:56:59;;;;;;;7.72;1.92;;;;;;;;;;4956685;28;20141;-73
2021/11/27 04:59:27;;;;;;;5.70;1.77;;;;;;;;;;4988890;28;20065;-73
2021/11/27 05:01:55;;;;;;;4.13;1.50;;;;;;;;;;4956904;28;20046;-72
2021/11/27 05:04:23;;;;;;;5.20;1.80;;;;;;;;;;4976619;28;20122;-78
2021/11/27 05:06:50;;;;;;;3.92;1.55;;;;;;;;;;4991127;28;20058;-74
2021/11/27 05:09:19;;;;;;;4.85;2.45;;;;;;;;;;4975510;28;20470;-72
2021/11/27 05:11:47;;;;;;;4.97;1.83;;;;;;;;;;4975499;28;20130;-77
2021/11/27 05:14:15;;;;;;;5.93;2.15;;;;;;;;;;4991217;28;20051;-78
2021/11/27 05:16:45;;;;;;;2.72;1.60;;;;;;;;;;4991780;28;20050;-72
2021/11/27 05:19:12;;;;;;;6.38;1.65;;;;;;;;;;4975387;28;20051;-74
2021/11/27 05:22:09;;;;;;;5.00;1.55;;;;;;;;;;4961349;28;20070;-72
2021/11/27 05:24:37;;;;;;;4.78;1.77;;;;;;;;;;4975310;28;20201;-75
2021/11/27 05:27:36;;;;;;;7.65;1.65;;;;;;;;;;4991161;28;20495;-74
2021/11/27 05:30:16;;;;;;;7.07;2.05;;;;;;;;;;4991359;28;20054;-74
2021/11/27 05:35:30;;;;;;;9.43;2.08;;;;;;;;;;4974525;28;20145;-78
2021/11/27 05:37:58;;;;;;;5.35;2.08;;;;;;;;;;4991805;28;20074;-72
2021/11/27 05:40:26;;;;;;;5.82;2.40;;;;;;;;;;4976738;28;20441;-78
2021/11/27 05:42:54;;;;;;;9.10;1.80;;;;;;;;;;4976410;28;20102;-73
2021/11/27 05:45:28;;;;;;;6.82;2.05;;;;;;;;;;4974663;28;20047;-78
2021/11/27 05:47:58;;;;;;;3.63;1.90;;;;;;;;;;4974792;28;20105;-72
2021/11/27 05:50:40;;;;;;;7.40;2.00;;;;;;;;;;4974503;28;20055;-78
2021/11/27 05:53:08;;;;;;;7.18;2.20;;;;;;;;;;4991412;28;20134;-78
2021/11/27 05:55:35;;;;;;;8.82;2.42;;;;;;;;;;4974786;28;20072;-71
2021/11/27 05:58:03;;;;;;;15.43;4.32;;;;;;;;;;4975016;28;20075;-73
2021/11/27 06:00:30;;;;;;;14.55;6.68;;;;;;;;;;4976086;28;20046;-72
2021/11/27 06:02:58;;;;;;;10.02;6.35;;;;;;;;;;4975705;28;20115;-72
2021/11/27 06:05:28;;;;;;;16.73;5.78;;;;;;;;;;4974704;28;20129;-74
2021/11/27 06:07:57;;;;;;;16.85;6.10;;;;;;;;;;4974317;28;20042;-74
2021/11/27 06:10:26;;;;;;;20.35;11.23;;;;;;;;;;4990554;28;20061;-74
2021/11/27 06:12:54;;;;;;;12.10;6.90;;;;;;;;;;4980985;28;20038;-78
2021/11/27 06:15:21;;;;;;;8.52;4.57;;;;;;;;;;4991956;28;20038;-71
2021/11/27 06:17:49;;;;;;;9.30;4.20;;;;;;;;;;4992244;28;20043;-75
2021/11/27 06:20:16;;;;;;;7.88;3.92;;;;;;;;;;4978044;28;20045;-77
2021/11/27 06:22:44;;;;;;;12.73;4.60;;;;;;;;;;4975312;28;20041;-70
2021/11/27 06:25:24;;;;;;;12.50;5.53;;;;;;;;;;4974894;28;20542;-73
2021/11/27 06:27:52;;;;;;;8.05;4.38;;;;;;;;;;4974548;28;20054;-70
2021/11/27 06:30:20;;;;;;;12.82;3.67;;;;;;;;;;4975318;28;20047;-70
2021/11/27 06:32:48;;;;;;;6.68;3.33;;;;;;;;;;4973816;28;20035;-71
2021/11/27 06:35:16;;;;;;;12.32;3.83;;;;;;;;;;4975013;28;20038;-74
2021/11/27 06:37:44;;;;;;;8.75;2.65;;;;;;;;;;4974810;28;20043;-70
2021/11/27 06:40:12;;;;;;;7.35;2.28;;;;;;;;;;4973595;28;20082;-75
2021/11/27 06:43:01;;;;;;;17.38;3.40;;;;;;;;;;4973802;28;20154;-71
2021/11/27 06:45:49;;;;;;;11.55;3.08;;;;;;;;;;4974145;28;20054;-78
2021/11/27 06:48:17;;;;;;;14.98;3.40;;;;;;;;;;4972918;28;20414;-72
2021/11/27 06:50:47;;;;;;;7.68;3.47;;;;;;;;;;4972605;28;20109;-72
2021/11/27 06:53:17;;;;;;;9.63;2.90;;;;;;;;;;4972919;28;20129;-70
2021/11/27 06:55:44;;;;;;;9.43;3.55;;;;;;;;;;4975060;28;20049;-72
2021/11/27 06:58:12;;;;;;;10.98;4.03;;;;;;;;;;4973193;28;20047;-77
2021/11/27 07:00:48;;;;;;;9.48;3.33;;;;;;;;;;4973199;28;20479;-77
2021/11/27 07:03:47;;;;;;;16.25;3.45;;;;;;;;;;4961956;28;20708;-74
2021/11/27 07:06:41;;;;;;;12.90;2.90;;;;;;;;;;4973979;28;20101;-74
2021/11/27 07:09:10;;;;;;;11.02;3.20;;;;;;;;;;4972875;28;20046;-71
2021/11/27 07:12:10;;;;;;;7.97;3.17;;;;;;;;;;4984352;28;20077;-73
2021/11/27 07:14:43;;;;;;;10.95;3.15;;;;;;;;;;4992250;28;20046;-71
2021/11/27 07:17:13;;;;;;;13.23;3.40;;;;;;;;;;4993120;28;20050;-78
2021/11/27 07:19:41;;;;;;;12.30;3.22;;;;;;;;;;4993741;28;20046;-75
2021/11/27 07:22:09;;;;;;;11.93;3.70;;;;;;;;;;4993574;28;20502;-72
2021/11/27 07:24:37;;;;;;;13.05;5.70;;;;;;;;;;4992567;28;20409;-70
2021/11/27 07:27:08;;;;;;;20.23;7.32;;;;;;;;;;5007908;28;20073;-77
2021/11/27 07:29:37;;;;;;;11.57;7.65;;;;;;;;;;4999699;28;20042;-71
2021/11/27 07:32:05;;;;;;;18.27;8.75;;;;;;;;;;5002028;28;20102;-74
2021/11/27 07:34:34;;;;;;;22.15;7.97;;;;;;;;;;4993123;28;20118;-78
2021/11/27 07:37:02;;;;;;;18.13;9.55;;;;;;;;;;4991961;28;20049;-70
2021/11/27 07:39:30;;;;;;;20.60;8.60;;;;;;;;;;4992814;28;20077;-70
2021/11/27 07:41:59;;;;;;;15.85;4.70;;;;;;;;;;4976388;28;20077;-72
2021/11/27 07:44:51;;;;;;;12.63;2.78;;;;;;;;;;4992211;28;20061;-77
2021/11/27 07:47:42;;;;;;;10.43;2.55;;;;;;;;;;4995591;28;20061;-74
2021/11/27 07:50:29;;;;;;;8.38;2.13;;;;;;;;;;4993560;28;20061;-74
2021/11/27 07:53:00;;;;;;;10.55;2.70;;;;;;;;;;4992687;28;20046;-73
2021/11/27 07:55:29;;;;;;;14.85;3.35;;;;;;;;;;4993463;28;20117;-72
2021/11/27 07:57:56;;;;;;;12.20;3.25;;;;;;;;;;4992991;28;20037;-78
2021/11/27 08:00:25;;;;;;;8.95;2.88;;;;;;;;;;4992977;28;20039;-72
2021/11/27 08:02:53;;;;;;;10.73;3.47;;;;;;;;;;4993102;28;20050;-77
2021/11/27 08:05:21;;;;;;;11.02;3.58;;;;;;;;;;4993016;28;20401;-73
2021/11/27 08:07:48;;;;;;;9.50;3.22;;;;;;;;;;4992724;28;20121;-70
2021/11/27 08:10:17;;;;;;;5.55;3.00;;;;;;;;;;5081791;23;20431;-72
2021/11/27 08:12:45;;;;;;;9.85;3.13;;;;;;;;;;5038091;28;20403;-75
2021/11/27 08:15:13;;;;;;;8.75;3.00;;;;;;;;;;5031858;28;20040;-72
2021/11/27 08:17:42;;;;;;;8.48;2.80;;;;;;;;;;5031999;28;20050;-74
2021/11/27 08:20:11;;;;;;;15.60;2.72;;;;;;;;;;5032202;28;20491;-74
2021/11/27 08:22:39;;;;;;;10.88;2.97;;;;;;;;;;5032133;28;20069;-74
2021/11/27 08:25:08;;;;;;;8.30;2.65;;;;;;;;;;5032297;28;20519;-72
2021/11/27 08:27:36;;;;;;;8.25;2.83;;;;;;;;;;5032096;28;20037;-78
2021/11/27 08:30:06;;;;;;;10.50;2.78;;;;;;;;;;5031660;28;20041;-72
2021/11/27 08:32:36;;;;;;;10.85;3.22;;;;;;;;;;5032402;28;20060;-73
2021/11/27 08:35:05;;;;;;;4.65;2.30;;;;;;;;;;5014751;28;20358;-78
2021/11/27 08:37:33;;;;;;;9.18;2.60;;;;;;;;;;5035458;28;20080;-78
2021/11/27 08:40:01;;;;;;;6.85;2.72;;;;;;;;;;5035960;28;20049;-72
2021/11/27 08:42:31;;;;;;;12.27;2.97;;;;;;;;;;5035617;28;20045;-72
2021/11/27 08:44:59;;;;;;;5.18;2.70;;;;;;;;;;5035736;28;20381;-72
2021/11/27 08:47:27;;;;;;;8.45;3.28;;;;;;;;;;5035409;28;20091;-78
2021/11/27 08:49:56;;;;;;;6.47;2.97;;;;;;;;;;5035585;28;20512;-70
2021/11/27 08:52:23;;;;;;;13.57;2.90;;;;;;;;;;5035732;28;20056;-72
2021/11/27 08:54:51;;;;;;;6.63;3.30;;;;;;;;;;5018055;28;20041;-73
2021/11/27 08:57:19;;;;;;;11.73;3.65;;;;;;;;;;5017472;28;20072;-78
2021/11/27 08:59:47;;;;;;;5.75;3.03;;;;;;;;;;4985872;28;20485;-71
2021/11/27 09:02:15;;;;;;;9.15;3.25;;;;;;;;;;5035336;28;20045;-72
2021/11/27 09:04:43;;;;;;;12.38;3.38;;;;;;;;;;5034681;28;20041;-71
2021/11/27 09:07:11;;;;;;;13.93;3.00;;;;;;;;;;5018028;28;20287;-70
2021/11/27 09:09:40;;;;;;;15.00;3.88;;;;;;;;;;5017386;28;20037;-77
2021/11/27 09:12:11;;;;;;;5.78;2.90;;;;;;;;;;5034634;28;20112;-72
2021/11/27 09:14:39;;;;;;;9.50;3.22;;;;;;;;;;5000667;28;20045;-78
2021/11/27 09:17:06;;;;;;;14.70;3.15;;;;;;;;;;5035698;28;20071;-74
2021/11/27 09:19:34;;;;;;;7.05;2.47;;;;;;;;;;5034640;28;20041;-71
2021/11/27 09:22:02;;;;;;;12.55;3.28;;;;;;;;;;5034997;28;20033;-77
2021/11/27 09:24:31;;;;;;;10.10;2.80;;;;;;;;;;5036692;28;20527;-77
2021/11/27 09:26:58;;;;;;;10.70;2.70;;;;;;;;;;5023587;28;20050;-78
2021/11/27 09:29:27;;;;;;;13.32;3.78;;;;;;;;;;5034802;28;20038;-77
2021/11/27 09:31:54;;;;;;;13.80;2.85;;;;;;;;;;5016990;28;20059;-73
2021/11/27 09:34:22;;;;;;;11.50;2.75;;;;;;;;;;5017054;28;20047;-73
2021/11/27 09:36:51;;;;;;;7.70;2.50;;;;;;;;;;5017195;28;20129;-74
2021/11/27 09:39:19;;;;;;;9.57;2.80;;;;;;;;;;5017125;28;20389;-73
2021/11/27 09:41:47;;;;;;;13.07;3.08;;;;;;;;;;5034514;28;20046;-75
2021/11/27 09:44:17;;;;;;;7.47;2.97;;;;;;;;;;5034762;28;20544;-71
2021/11/27 09:46:45;;;;;;;9.80;2.80;;;;;;;;;;5016439;28;20061;-72
2021/11/27 09:49:18;;;;;;;10.02;2.92;;;;;;;;;;5033705;28;20778;-70
2021/11/27 09:51:49;;;;;;;7.18;2.50;;;;;;;;;;5033716;28;20065;-72
2021/11/27 09:54:17;;;;;;;16.27;3.55;;;;;;;;;;5000074;28;20539;-74
2021/11/27 09:56:48;;;;;;;9.30;3.10;;;;;;;;;;5016032;28;20042;-72
2021/11/27 09:59:16;;;;;;;5.25;2.60;;;;;;;;;;5016275;28;20412;-72
2021/11/27 10:01:46;;;;;;;9.57;3.15;;;;;;;;;;5016319;28;20388;-72
2021/11/27 10:04:18;;;;;;;10.73;3.85;;;;;;;;;;5017991;28;20037;-73
2021/11/27 10:06:46;;;;;;;15.30;7.18;;;;;;;;;;5034179;28;20385;-77
2021/11/27 10:09:19;;;;;;;8.43;4.00;;;;;;;;;;5034062;28;20045;-70
2021/11/27 10:11:47;;;;;;;13.57;4.60;;;;;;;;;;5015999;28;20124;-74
2021/11/27 10:14:15;;;;;;;20.65;7.93;;;;;;;;;;4999563;28;20039;-71
2021/11/27 10:16:59;;;;;;;25.30;8.10;;;;;;;;;;5015582;28;20160;-72
2021/11/27 10:19:30;;;;;;;10.50;4.25;;;;;;;;;;5022477;28;20068;-70
2021/11/27 10:22:02;;;;;;;14.10;3.10;;;;;;;;;;5015656;28;20049;-70
2021/11/27 10:24:31;;;;;;;11.05;2.85;;;;;;;;;;5032771;28;20527;-77
2021/11/27 10:27:00;;;;;;;6.10;2.55;;;;;;;;;;5033463;28;20518;-77
2021/11/27 10:29:29;;;;;;;7.50;3.03;;;;;;;;;;4999619;28;20042;-72
2021/11/27 10:32:14;;;;;;;5.63;2.40;;;;;;;;;;5033407;28;20041;-77
2021/11/27 10:34:50;;;;;;;15.27;2.80;;;;;;;;;;5033373;28;20400;-73
2021/11/27 10:37:30;;;;;;;8.52;2.60;;;;;;;;;;5033155;28;20037;-71
2021/11/27 10:40:01;;;;;;;9.63;3.35;;;;;;;;;;5014898;28;20136;-74
2021/11/27 10:42:30;;;;;;;7.28;2.85;;;;;;;;;;5017726;28;20072;-74
2021/11/27 10:45:35;;;;;;;10.00;3.33;;;;;;;;;;5033366;28;20046;-77
2021/11/27 10:48:21;;;;;;;12.73;2.50;;;;;;;;;;4936556;28;20043;-72
2021/11/27 10:50:49;;;;;;;;;;;;;;;;;;4953314;28;20047;-74
2021/11/27 10:53:25;;;;;;;5.78;1.98;;;;;;;;;;4952311;28;19962;-71
2021/11/27 10:55:53;;;;;;;10.55;2.42;;;;;;;;;;4953117;28;20047;-70
2021/11/27 10:58:21;;;;;;;9.18;2.42;;;;;;;;;;4952646;28;20514;-74
2021/11/27 11:00:53;;;;;;;11.60;2.33;;;;;;;;;;4952385;28;20051;-72
2021/11/27 11:03:31;;;;;;;7.75;2.72;;;;;;;;;;4952768;28;20051;-74
2021/11/27 11:06:00;;;;;;;8.90;2.70;;;;;;;;;;4952738;28;20498;-75
2021/11/27 11:08:37;;;;;;;7.45;2.22;;;;;;;;;;4936161;28;20555;-74
2021/11/27 11:11:23;;;;;;;5.57;2.40;;;;;;;;;;4952109;28;20058;-74
2021/11/27 11:13:55;;;;;;;7.63;2.80;;;;;;;;;;4952536;28;20074;-71
2021/11/27 11:16:24;;;;;;;7.38;2.42;;;;;;;;;;4952288;28;20051;-72
2021/11/27 11:18:52;;;;;;;9.85;2.80;;;;;;;;;;4953006;28;20054;-72
2021/11/27 11:21:20;;;;;;;9.07;2.40;;;;;;;;;;4963294;28;20534;-74
2021/11/27 11:23:49;;;;;;;8.55;2.30;;;;;;;;;;5010838;28;20053;-75
2021/11/27 11:26:35;;;;;;;6.40;2.15;;;;;;;;;;5012472;28;20046;-77
2021/11/27 11:29:23;;;;;;;7.78;2.05;;;;;;;;;;5012469;28;20044;-75
2021/11/27 11:31:50;;;;;;;7.43;2.03;;;;;;;;;;5012333;28;20049;-73
2021/11/27 11:34:18;;;;;;;8.43;1.98;;;;;;;;;;5012126;28;20450;-73
2021/11/27 11:36:56;;;;;;;6.97;2.15;;;;;;;;;;4996206;28;20046;-72
2021/11/27 11:39:23;;;;;;;6.75;1.83;;;;;;;;;;5012794;28;20043;-71
2021/11/27 11:41:51;;;;;;;9.40;1.88;;;;;;;;;;5010839;28;20046;-77
2021/11/27 11:44:18;;;;;;;6.13;1.70;;;;;;;;;;5011683;28;20140;-73
2021/11/27 11:46:46;;;;;;;6.47;2.38;;;;;;;;;;5012439;28;20052;-73
2021/11/27 11:49:14;;;;;;;6.53;1.70;;;;;;;;;;5011389;28;20041;-75
2021/11/27 11:51:41;;;;;;;7.07;1.95;;;;;;;;;;5011777;28;20042;-72
2021/11/27 11:54:10;;;;;;;8.32;2.40;;;;;;;;;;5012232;28;20042;-72
2021/11/27 11:56:40;;;;;;;9.75;2.00;;;;;;;;;;5012338;28;20040;-73
2021/11/27 11:59:32;;;;;;;6.93;2.00;;;;;;;;;;5012406;28;20125;-70
2021/11/27 12:02:12;;;;;;;8.20;2.10;;;;;;;;;;5010688;28;20137;-72
2021/11/27 12:04:58;;;;;;;8.70;1.88;;;;;;;;;;5010791;28;20152;-71
2021/11/27 12:10:19;;;;;;;9.07;2.33;;;;;;;;;;5007898;28;20505;-77
2021/11/27 12:13:07;;;;;;;9.23;2.08;;;;;;;;;;5026892;28;20426;-77
2021/11/27 12:15:39;;;;;;;10.68;2.53;;;;;;;;;;5004489;28;20485;-72
2021/11/27 12:18:12;;;;;;;6.38;2.15;;;;;;;;;;5007296;28;20516;-76
2021/11/27 12:20:40;;;;;;;12.57;2.80;;;;;;;;;;5025366;28;20065;-76
2021/11/27 12:23:34;;;;;;;6.28;2.00;;;;;;;;;;5026890;28;20037;-78
2021/11/27 12:26:07;;;;;;;8.23;2.00;;;;;;;;;;5026506;28;20052;-78
2021/11/27 12:28:37;;;;;;;7.68;1.92;;;;;;;;;;5025855;28;20039;-74
2021/11/27 12:31:07;;;;;;;7.47;1.98;;;;;;;;;;5026654;28;20041;-72
2021/11/27 12:33:42;;;;;;;8.23;2.00;;;;;;;;;;5024522;28;20033;-76
2021/11/27 12:36:30;;;;;;;6.00;2.20;;;;;;;;;;5003716;28;20108;-73
2021/11/27 12:39:30;;;;;;;6.85;2.20;;;;;;;;;;5024870;28;20042;-75
2021/11/27 12:42:07;;;;;;;10.13;2.35;;;;;;;;;;5026144;28;20118;-71
2021/11/27 12:44:35;;;;;;;11.38;2.55;;;;;;;;;;5028345;28;20068;-74
2021/11/27 12:47:02;;;;;;;9.85;2.42;;;;;;;;;;5007413;28;20045;-74
2021/11/27 12:49:34;;;;;;;7.97;2.65;;;;;;;;;;5010059;28;20037;-73
2021/11/27 12:52:18;;;;;;;7.50;2.10;;;;;;;;;;5027381;28;20064;-76
2021/11/27 12:54:54;;;;;;;6.97;2.50;;;;;;;;;;5006507;28;20132;-70
2021/11/27 12:57:25;;;;;;;5.03;2.13;;;;;;;;;;5029386;28;20077;-74
2021/11/27 13:00:14;;;;;;;8.48;1.95;;;;;;;;;;5035667;28;20045;-77
2021/11/27 13:02:55;;;;;;;8.15;2.17;;;;;;;;;;5034933;28;20041;-71
2021/11/27 13:05:25;;;;;;;8.43;1.95;;;;;;;;;;5019072;28;20045;-77
2021/11/27 13:07:53;;;;;;;8.82;2.13;;;;;;;;;;5034942;28;20120;-72
2021/11/27 13:10:21;;;;;;;6.40;2.17;;;;;;;;;;5014015;28;20050;-71
2021/11/27 13:13:00;;;;;;;6.63;1.92;;;;;;;;;;5015069;28;20052;-70
2021/11/27 13:15:28;;;;;;;7.85;2.40;;;;;;;;;;4999527;28;20033;-77
2021/11/27 13:18:17;;;;;;;7.95;2.30;;;;;;;;;;5015092;28;20046;-74
2021/11/27 13:20:53;;;;;;;6.10;2.40;;;;;;;;;;5015267;28;20100;-78
2021/11/27 13:23:28;;;;;;;;;;;;;;;;;;5013092;28;20466;-77
2021/11/27 13:26:05;;;;;;;5.00;2.15;;;;;;;;;;5015139;28;19948;-72
2021/11/27 13:28:38;;;;;;;5.90;2.13;;;;;;;;;;5014758;28;20045;-73
2021/11/27 13:31:07;;;;;;;8.02;2.40;;;;;;;;;;5014781;28;20125;-75
2021/11/27 13:33:54;;;;;;;7.35;3.00;;;;;;;;;;5014246;28;20030;-71
2021/11/27 13:36:26;;;;;;;4.88;2.10;;;;;;;;;;5013701;28;20405;-72
2021/11/27 13:39:09;;;;;;;6.47;2.30;;;;;;;;;;5015094;28;20077;-71
2021/11/27 13:41:38;;;;;;;5.65;2.25;;;;;;;;;;4994303;28;20046;-70
2021/11/27 13:44:07;;;;;;;5.35;2.10;;;;;;;;;;5002496;28;20038;-72
2021/11/27 13:46:51;;;;;;;3.65;2.03;;;;;;;;;;5014645;28;20132;-72
2021/11/27 13:49:48;;;;;;;5.88;2.35;;;;;;;;;;5014640;28;20037;-75
2021/11/27 13:52:16;;;;;;;5.80;2.33;;;;;;;;;;5010287;28;20164;-71
2021/11/27 13:54:54;;;;;;;8.63;2.45;;;;;;;;;;5014136;28;20124;-71
2021/11/27 13:57:23;;;;;;;10.02;2.30;;;;;;;;;;5014837;28;20051;-72
2021/11/27 13:59:51;;;;;;;4.03;1.98;;;;;;;;;;4999783;28;20404;-76
2021/11/27 14:02:19;;;;;;;6.05;1.98;;;;;;;;;;5013916;28;20042;-75
2021/11/27 14:04:56;;;;;;;4.93;2.15;;;;;;;;;;5014837;28;20088;-72
2021/11/27 14:07:24;;;;;;;5.13;1.95;;;;;;;;;;5014555;28;20307;-75
2021/11/27 14:09:54;;;;;;;5.15;1.80;;;;;;;;;;5012881;28;20044;-74
2021/11/27 14:12:30;;;;;;;4.40;1.88;;;;;;;;;;5032603;28;20048;-72
2021/11/27 14:15:00;;;;;;;6.25;1.88;;;;;;;;;;5032174;28;20072;-76
2021/11/27 14:17:28;;;;;;;3.55;1.70;;;;;;;;;;5032265;28;20042;-73
2021/11/27 14:20:13;;;;;;;4.97;2.10;;;;;;;;;;5032398;28;20393;-77
2021/11/27 14:23:07;;;;;;;4.93;2.05;;;;;;;;;;5032016;28;20037;-73
2021/11/27 14:25:37;;;;;;;6.60;2.00;;;;;;;;;;4995673;28;20053;-75
2021/11/27 14:28:10;;;;;;;7.72;1.80;;;;;;;;;;5031916;28;20606;-71
2021/11/27 14:30:45;;;;;;;5.70;2.03;;;;;;;;;;5031808;28;20064;-75
2021/11/27 14:33:25;;;;;;;3.75;1.60;;;;;;;;;;5031524;28;20396;-77
2021/11/27 14:36:03;;;;;;;6.40;2.08;;;;;;;;;;5015471;28;20115;-72
2021/11/27 14:38:51;;;;;;;4.82;1.70;;;;;;;;;;5013931;28;20140;-75
2021/11/27 14:41:26;;;;;;;8.23;1.95;;;;;;;;;;5031707;28;20140;-71
2021/11/27 14:44:12;;;;;;;2.88;1.63;;;;;;;;;;5031487;28;20076;-75
2021/11/27 14:46:41;;;;;;;6.78;1.73;;;;;;;;;;5013931;28;20057;-71
2021/11/27 14:49:16;;;;;;;5.43;1.60;;;;;;;;;;5031346;28;20095;-73
2021/11/27 14:51:45;;;;;;;5.72;1.77;;;;;;;;;;5013957;28;20076;-73
2021/11/27 14:54:14;;;;;;;5.85;1.70;;;;;;;;;;5033226;28;20481;-73
2021/11/27 14:56:42;;;;;;;6.57;2.20;;;;;;;;;;5032475;28;20033;-77
2021/11/27 14:59:09;;;;;;;5.03;1.65;;;;;;;;;;5024831;28;20052;-75
2021/11/27 15:01:36;;;;;;;6.47;1.80;;;;;;;;;;5029935;28;20610;-71
2021/11/27 15:04:04;;;;;;;4.88;1.73;;;;;;;;;;5012001;28;20065;-77
2021/11/27 15:06:35;;;;;;;3.40;1.63;;;;;;;;;;5030487;28;20055;-76
2021/11/27 15:09:03;;;;;;;5.72;1.92;;;;;;;;;;5030396;28;20389;-71
2021/11/27 15:11:31;;;;;;;9.20;2.08;;;;;;;;;;5029897;28;20046;-70